Time;durP1;ratioP1;P1;durP2;ratioP2;P2;SDS_P1;SDS_P2;PMS_P1;PMS_P2;Temp;Humidity;BMP_temperature;BMP_pressure;BME280_temperature;BME280_humidity;BME280_pressure;Samples;Min_cycle;Max_cycle;Signal;HPM_P1;HPM_P2
2021/10/12 00:01:00;;;;;;;6.65;2.60;;;13.80;92.70;;;;;;4958229;28;20022;-70
2021/10/12 00:03:25;;;;;;;7.60;2.38;;;13.80;92.60;;;;;;4975258;28;20437;-70
2021/10/12 00:05:51;;;;;;;5.90;2.45;;;13.80;92.60;;;;;;4958006;28;20478;-72
2021/10/12 00:08:16;;;;;;;6.53;2.50;;;13.80;92.60;;;;;;4975162;28;20046;-69
2021/10/12 00:10:42;;;;;;;7.95;3.10;;;13.70;92.40;;;;;;4975320;28;20023;-70
2021/10/12 00:13:08;;;;;;;7.88;3.28;;;13.80;92.40;;;;;;4975126;28;20433;-71
2021/10/12 00:15:33;;;;;;;5.78;2.50;;;13.70;92.30;;;;;;4975229;28;20039;-70
2021/10/12 00:17:59;;;;;;;10.38;3.08;;;13.80;92.30;;;;;;4975086;28;20030;-70
2021/10/12 00:20:24;;;;;;;5.93;2.83;;;13.70;92.40;;;;;;4974086;28;20066;-71
2021/10/12 00:22:50;;;;;;;7.60;2.95;;;13.70;92.40;;;;;;4974589;28;20077;-70
2021/10/12 00:25:15;;;;;;;7.03;2.70;;;13.70;92.40;;;;;;4975080;28;20038;-70
2021/10/12 00:27:41;;;;;;;6.85;2.90;;;13.70;92.40;;;;;;4974905;28;20030;-70
2021/10/12 00:30:07;;;;;;;6.88;2.65;;;13.70;92.60;;;;;;4974663;28;20023;-71
2021/10/12 00:32:33;;;;;;;8.65;2.80;;;13.70;92.60;;;;;;4974704;28;20085;-70
2021/10/12 00:34:59;;;;;;;6.68;2.72;;;13.70;92.50;;;;;;4957422;28;20509;-70
2021/10/12 00:37:25;;;;;;;7.70;3.28;;;13.70;92.60;;;;;;4975009;28;20030;-70
2021/10/12 00:39:51;;;;;;;7.75;3.20;;;13.70;92.50;;;;;;4974535;28;20038;-69
2021/10/12 00:42:16;;;;;;;6.18;2.72;;;13.70;92.40;;;;;;4957131;28;20101;-70
2021/10/12 00:44:42;;;;;;;7.82;3.63;;;13.70;92.40;;;;;;4957313;28;20023;-70
2021/10/12 00:47:07;;;;;;;6.82;3.13;;;13.70;92.40;;;;;;4974672;28;20054;-70
2021/10/12 00:49:33;;;;;;;8.30;3.22;;;13.70;92.70;;;;;;4974180;28;20054;-70
2021/10/12 00:51:58;;;;;;;6.82;2.83;;;13.70;92.40;;;;;;4957156;28;20027;-70
2021/10/12 00:54:24;;;;;;;7.70;3.38;;;13.70;92.30;;;;;;4957133;28;20117;-70
2021/10/12 00:56:49;;;;;;;7.13;2.80;;;13.70;92.40;;;;;;4974598;28;20051;-71
2021/10/12 00:59:15;;;;;;;6.38;3.10;;;13.70;92.50;;;;;;4974137;28;20560;-70
2021/10/12 01:01:41;;;;;;;5.68;2.80;;;13.80;92.50;;;;;;4974362;28;20031;-69
2021/10/12 01:04:07;;;;;;;5.88;2.90;;;13.70;92.60;;;;;;4974197;28;20031;-70
2021/10/12 01:06:33;;;;;;;7.18;3.08;;;13.70;92.60;;;;;;4974315;28;20023;-71
2021/10/12 01:08:59;;;;;;;5.18;2.63;;;13.70;92.60;;;;;;4973956;28;20042;-70
2021/10/12 01:11:25;;;;;;;5.10;2.60;;;13.70;92.50;;;;;;4956777;28;20019;-72
2021/10/12 01:13:51;;;;;;;6.88;2.88;;;13.70;92.50;;;;;;4956772;28;20033;-71
2021/10/12 01:16:17;;;;;;;6.95;3.17;;;13.70;92.50;;;;;;4974077;28;20482;-70
2021/10/12 01:19:05;;;;;;;6.78;2.80;;;13.70;92.40;;;;;;4973690;28;20049;-72
2021/10/12 01:21:38;;;;;;;7.60;3.15;;;13.70;92.50;;;;;;4973956;28;20058;-69
2021/10/12 01:24:04;;;;;;;6.72;3.08;;;13.70;92.60;;;;;;4973897;28;20038;-70
2021/10/12 01:26:30;;;;;;;7.80;3.05;;;13.70;92.60;;;;;;4956513;28;20093;-69
2021/10/12 01:28:55;;;;;;;6.20;2.67;;;13.70;92.50;;;;;;4973445;28;20031;-71
2021/10/12 01:31:26;;;;;;;5.47;2.47;;;13.70;92.50;;;;;;4973715;28;20077;-70
2021/10/12 01:33:52;;;;;;;7.80;3.10;;;13.70;92.60;;;;;;4956205;28;20398;-71
2021/10/12 01:36:18;;;;;;;6.68;2.70;;;13.70;92.60;;;;;;4956399;28;20034;-71
2021/10/12 01:38:44;;;;;;;7.30;3.10;;;13.70;92.60;;;;;;4973381;28;20510;-70
2021/10/12 01:41:10;;;;;;;7.40;2.90;;;13.70;92.60;;;;;;4973600;28;20034;-69
2021/10/12 01:43:36;;;;;;;6.35;3.00;;;13.70;92.60;;;;;;4973240;28;20077;-70
2021/10/12 01:46:03;;;;;;;6.25;2.72;;;13.70;92.50;;;;;;4973547;28;20066;-70
2021/10/12 01:48:29;;;;;;;6.60;2.67;;;13.70;92.70;;;;;;4973205;28;20154;-71
2021/10/12 01:50:54;;;;;;;6.80;2.78;;;13.70;92.60;;;;;;4973485;28;20058;-71
2021/10/12 01:53:20;;;;;;;6.22;2.85;;;13.70;92.60;;;;;;4973375;28;20027;-70
2021/10/12 01:55:46;;;;;;;5.57;2.50;;;13.70;92.70;;;;;;4973351;28;20038;-70
2021/10/12 01:58:11;;;;;;;7.72;2.90;;;13.70;92.60;;;;;;4973107;28;20056;-68
2021/10/12 02:00:37;;;;;;;5.90;2.88;;;13.70;92.60;;;;;;4973124;28;20085;-71
2021/10/12 02:03:02;;;;;;;5.90;2.63;;;13.70;92.60;;;;;;4973196;28;20059;-70
2021/10/12 02:05:28;;;;;;;7.28;2.60;;;13.60;92.50;;;;;;4973290;28;20019;-70
2021/10/12 02:07:53;;;;;;;4.05;2.45;;;13.70;92.50;;;;;;4973255;28;20410;-71
2021/10/12 02:10:19;;;;;;;8.98;3.20;;;13.70;92.60;;;;;;4972840;28;20029;-71
2021/10/12 02:12:46;;;;;;;7.07;2.58;;;13.70;92.50;;;;;;4972980;28;20418;-70
2021/10/12 02:15:12;;;;;;;7.65;2.63;;;13.70;92.40;;;;;;4973144;28;20026;-71
2021/10/12 02:17:38;;;;;;;5.70;2.40;;;13.60;92.40;;;;;;4973071;28;20030;-71
2021/10/12 02:20:05;;;;;;;6.38;2.25;;;13.60;92.40;;;;;;4972731;28;20085;-70
2021/10/12 02:22:31;;;;;;;6.35;2.47;;;13.70;92.40;;;;;;4972816;28;20077;-70
2021/10/12 02:24:56;;;;;;;9.00;2.78;;;13.60;92.40;;;;;;4972939;28;20503;-70
2021/10/12 02:27:22;;;;;;;6.78;2.55;;;13.60;92.40;;;;;;4972918;28;20065;-70
2021/10/12 02:29:48;;;;;;;5.82;2.40;;;13.60;92.50;;;;;;4955267;28;20022;-69
2021/10/12 02:32:14;;;;;;;6.38;2.60;;;13.60;92.50;;;;;;4972884;28;20027;-70
2021/10/12 02:34:39;;;;;;;5.57;2.50;;;13.60;92.30;;;;;;4956724;28;20129;-70
2021/10/12 02:37:05;;;;;;;6.75;2.40;;;13.60;92.70;;;;;;4980339;28;20015;-71
2021/10/12 02:39:31;;;;;;;5.10;2.20;;;13.60;92.40;;;;;;4991866;28;20105;-72
2021/10/12 02:41:56;;;;;;;7.32;2.67;;;13.60;92.40;;;;;;4992043;28;20089;-70
2021/10/12 02:44:22;;;;;;;6.32;2.55;;;13.60;92.40;;;;;;5041905;23;20046;-67
2021/10/12 02:46:48;;;;;;;7.05;2.22;;;13.60;92.40;;;;;;5032187;28;20021;-67
2021/10/12 02:49:13;;;;;;;5.05;2.22;;;13.60;92.40;;;;;;5035210;28;20044;-67
2021/10/12 02:51:39;;;;;;;6.00;2.28;;;13.60;92.40;;;;;;5035593;28;20026;-67
2021/10/12 02:54:05;;;;;;;10.35;2.53;;;13.60;92.10;;;;;;5035560;28;20036;-68
2021/10/12 02:56:30;;;;;;;5.30;2.60;;;13.60;92.10;;;;;;5035530;28;20527;-67
2021/10/12 02:58:56;;;;;;;7.05;2.58;;;13.60;92.10;;;;;;5035188;28;20404;-67
2021/10/12 03:01:21;;;;;;;6.75;2.20;;;13.60;92.10;;;;;;5035315;28;20511;-66
2021/10/12 03:03:47;;;;;;;6.32;2.22;;;13.60;92.10;;;;;;5033966;28;20036;-66
2021/10/12 03:06:13;;;;;;;6.85;2.45;;;13.60;92.20;;;;;;5035364;28;20072;-67
2021/10/12 03:08:39;;;;;;;6.05;2.67;;;13.60;92.10;;;;;;5035015;28;20014;-67
2021/10/12 03:11:04;;;;;;;6.50;2.70;;;13.60;92.00;;;;;;5035166;28;20029;-67
2021/10/12 03:13:30;;;;;;;6.88;2.63;;;13.60;92.10;;;;;;5035188;28;20100;-67
2021/10/12 03:15:55;;;;;;;7.97;2.30;;;13.60;92.10;;;;;;5035081;28;20029;-66
2021/10/12 03:18:21;;;;;;;7.72;2.90;;;13.60;92.00;;;;;;5035004;28;20391;-67
2021/10/12 03:20:47;;;;;;;5.25;2.38;;;13.60;92.00;;;;;;5035038;28;20516;-67
2021/10/12 03:23:12;;;;;;;6.13;2.28;;;13.50;92.00;;;;;;5035066;28;20025;-66
2021/10/12 03:25:38;;;;;;;6.00;2.50;;;13.60;92.20;;;;;;5034952;28;20076;-66
2021/10/12 03:28:03;;;;;;;5.38;2.60;;;13.60;92.10;;;;;;5034935;28;20041;-67
2021/10/12 03:30:29;;;;;;;6.00;2.40;;;13.60;92.20;;;;;;5034498;28;20068;-68
2021/10/12 03:32:55;;;;;;;8.65;2.65;;;13.60;92.20;;;;;;5033458;28;20099;-66
2021/10/12 03:35:29;;;;;;;4.60;2.15;;;13.60;92.30;;;;;;5034793;28;20031;-67
2021/10/12 03:37:55;;;;;;;6.80;2.60;;;13.60;92.30;;;;;;5034757;28;20401;-67
2021/10/12 03:40:21;;;;;;;5.78;2.20;;;13.60;92.20;;;;;;5034388;28;20388;-65
2021/10/12 03:42:47;;;;;;;7.57;2.72;;;13.50;92.20;;;;;;5034416;28;20025;-67
2021/10/12 03:45:12;;;;;;;5.53;2.25;;;13.50;92.20;;;;;;5034451;28;20061;-66
2021/10/12 03:47:38;;;;;;;5.72;2.08;;;13.60;92.10;;;;;;5034571;28;20366;-67
2021/10/12 03:50:04;;;;;;;7.97;2.15;;;13.60;92.30;;;;;;5034255;28;20018;-66
2021/10/12 03:52:29;;;;;;;6.03;2.38;;;13.60;92.20;;;;;;5034476;28;20561;-66
2021/10/12 03:54:55;;;;;;;6.80;2.10;;;13.50;92.10;;;;;;5034125;28;20396;-66
2021/10/12 03:57:20;;;;;;;5.78;2.10;;;13.50;92.20;;;;;;5033195;28;20140;-68
2021/10/12 03:59:46;;;;;;;6.13;2.30;;;13.50;92.20;;;;;;5033994;28;20051;-66
2021/10/12 04:02:11;;;;;;;5.63;1.80;;;13.60;92.30;;;;;;5033050;28;20075;-66
2021/10/12 04:04:37;;;;;;;7.15;2.20;;;13.50;92.10;;;;;;5034244;28;20488;-66
2021/10/12 04:07:02;;;;;;;8.32;2.42;;;13.50;92.40;;;;;;5034235;28;20026;-66
2021/10/12 04:09:30;;;;;;;6.68;2.42;;;13.50;92.10;;;;;;5033898;28;20021;-66
2021/10/12 04:11:56;;;;;;;7.25;2.35;;;13.50;92.20;;;;;;5032852;28;20492;-66
2021/10/12 04:14:21;;;;;;;7.05;2.20;;;13.50;92.20;;;;;;5033928;28;20044;-67
2021/10/12 04:16:47;;;;;;;5.65;2.03;;;13.50;92.10;;;;;;5034087;28;20029;-66
2021/10/12 04:19:12;;;;;;;5.18;2.20;;;13.50;92.20;;;;;;5033792;28;20034;-66
2021/10/12 04:21:38;;;;;;;6.53;2.08;;;13.50;92.30;;;;;;5034051;28;20388;-67
2021/10/12 04:24:04;;;;;;;7.75;2.20;;;13.50;92.30;;;;;;5033688;28;20025;-67
2021/10/12 04:26:30;;;;;;;5.10;2.00;;;13.50;92.20;;;;;;5032612;28;20512;-67
2021/10/12 04:28:55;;;;;;;6.10;2.40;;;13.60;92.20;;;;;;5033423;28;20029;-66
2021/10/12 04:31:21;;;;;;;7.53;1.98;;;13.50;92.20;;;;;;5033814;28;20021;-66
2021/10/12 04:33:46;;;;;;;7.60;2.35;;;13.50;92.10;;;;;;5033647;28;20026;-66
2021/10/12 04:36:12;;;;;;;4.85;2.13;;;13.60;92.20;;;;;;5028587;28;20504;-66
2021/10/12 04:38:38;;;;;;;6.25;2.10;;;13.50;92.20;;;;;;5033009;28;20108;-67
2021/10/12 04:41:03;;;;;;;6.78;2.30;;;13.50;92.10;;;;;;5032226;28;20032;-67
2021/10/12 04:43:29;;;;;;;6.25;2.40;;;13.50;92.20;;;;;;5031853;28;20025;-66
2021/10/12 04:45:54;;;;;;;7.28;2.30;;;13.50;92.20;;;;;;5033491;28;20028;-66
2021/10/12 04:48:20;;;;;;;5.68;2.42;;;13.50;92.30;;;;;;5027649;28;20094;-66
2021/10/12 04:50:45;;;;;;;6.97;1.95;;;13.50;92.30;;;;;;5017662;28;20014;-66
2021/10/12 04:53:11;;;;;;;5.57;2.08;;;13.60;92.40;;;;;;5013520;28;20555;-67
2021/10/12 04:55:40;;;;;;;4.72;2.08;;;13.50;92.30;;;;;;5025771;28;20096;-68
2021/10/12 04:58:07;;;;;;;6.10;2.25;;;13.50;92.40;;;;;;5031907;28;20063;-66
2021/10/12 05:00:34;;;;;;;6.05;2.58;;;13.60;92.30;;;;;;5033025;28;20033;-66
2021/10/12 05:02:59;;;;;;;6.22;2.17;;;13.50;92.30;;;;;;5033347;28;20021;-66
2021/10/12 05:05:25;;;;;;;5.93;2.10;;;13.60;92.40;;;;;;5031621;28;20029;-66
2021/10/12 05:07:50;;;;;;;6.97;2.58;;;13.50;92.30;;;;;;5026704;28;20729;-66
2021/10/12 05:10:16;;;;;;;9.95;2.10;;;13.50;92.40;;;;;;5028015;28;20029;-66
2021/10/12 05:12:41;;;;;;;7.63;2.20;;;13.50;92.40;;;;;;5031345;28;20033;-66
2021/10/12 05:15:07;;;;;;;7.03;2.22;;;13.50;92.40;;;;;;5032836;28;20100;-66
2021/10/12 05:17:36;;;;;;;6.60;1.85;;;13.50;92.40;;;;;;5030737;28;20416;-65
2021/10/12 05:20:03;;;;;;;4.38;2.00;;;13.50;92.40;;;;;;5032561;28;20024;-67
2021/10/12 05:22:29;;;;;;;12.35;2.42;;;13.50;92.40;;;;;;5032717;28;20028;-67
2021/10/12 05:24:54;;;;;;;17.52;3.00;;;13.50;92.40;;;;;;5031496;28;20029;-66
2021/10/12 05:27:20;;;;;;;13.25;2.72;;;13.50;92.40;;;;;;5031423;28;20508;-67
2021/10/12 05:29:45;;;;;;;6.18;1.92;;;13.50;92.30;;;;;;5032481;28;20009;-66
2021/10/12 05:32:11;;;;;;;6.30;1.95;;;13.60;92.40;;;;;;5032574;28;20033;-66
2021/10/12 05:34:36;;;;;;;7.65;2.47;;;13.50;92.40;;;;;;5032593;28;20021;-66
2021/10/12 05:37:02;;;;;;;6.95;2.15;;;13.50;92.30;;;;;;5032411;28;20104;-65
2021/10/12 05:39:28;;;;;;;6.65;2.20;;;13.60;92.30;;;;;;5031752;28;20119;-66
2021/10/12 05:41:55;;;;;;;7.80;2.45;;;13.50;92.30;;;;;;5032144;28;20108;-67
2021/10/12 05:44:21;;;;;;;10.15;2.70;;;13.60;92.30;;;;;;5032227;28;20037;-68
2021/10/12 05:46:47;;;;;;;10.57;2.83;;;13.50;91.90;;;;;;5032220;28;20021;-68
2021/10/12 05:49:12;;;;;;;8.77;2.55;;;13.40;92.00;;;;;;5031096;28;20108;-68
2021/10/12 05:51:38;;;;;;;7.78;2.50;;;13.50;92.30;;;;;;5031429;28;20026;-69
2021/10/12 05:54:06;;;;;;;11.80;2.80;;;13.50;92.30;;;;;;5031630;28;20037;-68
2021/10/12 05:56:41;;;;;;;7.45;2.53;;;13.50;92.20;;;;;;5032160;28;20497;-68
2021/10/12 05:59:06;;;;;;;11.55;2.90;;;13.50;92.30;;;;;;5031925;28;20026;-68
2021/10/12 06:01:35;;;;;;;10.85;2.38;;;13.50;92.30;;;;;;5032132;28;20423;-68
2021/10/12 06:04:00;;;;;;;10.32;2.60;;;13.50;92.20;;;;;;5031865;28;20108;-67
2021/10/12 06:06:26;;;;;;;9.80;2.88;;;13.50;92.20;;;;;;5032047;28;20148;-68
2021/10/12 06:08:51;;;;;;;8.75;2.95;;;13.50;92.20;;;;;;5031618;28;20104;-68
2021/10/12 06:11:17;;;;;;;7.85;2.53;;;13.60;92.20;;;;;;5030696;28;20496;-68
2021/10/12 06:13:44;;;;;;;8.93;3.08;;;13.50;92.10;;;;;;5030617;28;20028;-69
2021/10/12 06:16:09;;;;;;;8.57;3.08;;;13.50;92.20;;;;;;5030826;28;20392;-68
2021/10/12 06:18:35;;;;;;;8.07;2.80;;;13.50;92.10;;;;;;5031543;28;20021;-68
2021/10/12 06:21:02;;;;;;;9.15;2.95;;;13.50;92.10;;;;;;5031746;28;20104;-69
2021/10/12 06:23:28;;;;;;;7.35;3.15;;;13.50;92.10;;;;;;5031518;28;20192;-68
2021/10/12 06:25:53;;;;;;;10.20;3.50;;;13.50;92.10;;;;;;5031752;28;20120;-68
2021/10/12 06:28:20;;;;;;;7.60;2.92;;;13.50;92.10;;;;;;5031462;28;20071;-68
2021/10/12 06:30:46;;;;;;;7.82;2.92;;;13.50;92.00;;;;;;5031715;28;20022;-68
2021/10/12 06:33:12;;;;;;;8.95;3.15;;;13.50;92.10;;;;;;5031592;28;20096;-68
2021/10/12 06:35:38;;;;;;;9.23;3.30;;;13.50;92.10;;;;;;5031629;28;20053;-68
2021/10/12 06:38:05;;;;;;;9.32;3.60;;;13.50;92.10;;;;;;5030214;28;20496;-67
2021/10/12 06:40:32;;;;;;;8.82;3.40;;;13.50;92.00;;;;;;5030071;28;20116;-68
2021/10/12 06:42:58;;;;;;;8.32;3.42;;;13.50;92.10;;;;;;5030007;28;20026;-67
2021/10/12 06:45:24;;;;;;;7.15;3.17;;;13.50;92.10;;;;;;5030364;28;20033;-67
2021/10/12 06:47:49;;;;;;;7.40;3.50;;;13.50;92.10;;;;;;5030295;28;20396;-67
2021/10/12 06:50:18;;;;;;;7.00;3.03;;;13.50;92.10;;;;;;5031225;28;20019;-68
2021/10/12 06:52:43;;;;;;;8.73;2.97;;;13.50;92.10;;;;;;5031787;28;20060;-68
2021/10/12 06:55:10;;;;;;;8.60;3.03;;;13.50;92.10;;;;;;5031573;28;20056;-68
2021/10/12 06:57:37;;;;;;;8.82;2.97;;;13.50;92.10;;;;;;5030182;28;20025;-68
2021/10/12 07:00:04;;;;;;;9.02;3.25;;;13.50;92.10;;;;;;5031167;28;20037;-68
2021/10/12 07:02:29;;;;;;;7.93;3.35;;;13.50;92.20;;;;;;5031358;28;20052;-67
2021/10/12 07:04:55;;;;;;;8.13;3.08;;;13.50;92.20;;;;;;5031342;28;20473;-69
2021/10/12 07:07:20;;;;;;;6.45;3.03;;;13.50;92.20;;;;;;5031266;28;20124;-68
2021/10/12 07:09:46;;;;;;;8.32;2.80;;;13.50;92.20;;;;;;5031023;28;20485;-68
2021/10/12 07:12:11;;;;;;;6.63;2.88;;;13.50;92.20;;;;;;5031302;28;20021;-68
2021/10/12 07:14:37;;;;;;;7.32;2.58;;;13.50;92.20;;;;;;5031235;28;20025;-68
2021/10/12 07:17:03;;;;;;;7.50;3.22;;;13.50;92.20;;;;;;5031230;28;20097;-67
2021/10/12 07:19:28;;;;;;;7.95;2.70;;;13.50;92.20;;;;;;5030931;28;20045;-68
2021/10/12 07:21:55;;;;;;;7.10;2.70;;;13.50;92.20;;;;;;5031114;28;20021;-68
2021/10/12 07:24:21;;;;;;;5.80;2.60;;;13.50;92.20;;;;;;5031066;28;20021;-68
2021/10/12 07:26:47;;;;;;;6.10;2.60;;;13.50;92.30;;;;;;5030052;28;20022;-67
2021/10/12 07:29:13;;;;;;;5.95;2.60;;;13.50;92.30;;;;;;5030885;28;20033;-67
2021/10/12 07:31:38;;;;;;;7.13;2.80;;;13.50;92.30;;;;;;5032847;28;20018;-68
2021/10/12 07:34:06;;;;;;;5.65;2.40;;;13.50;92.30;;;;;;5034684;28;20040;-67
2021/10/12 07:36:32;;;;;;;6.97;2.60;;;13.50;92.30;;;;;;5034699;28;20026;-68
2021/10/12 07:38:57;;;;;;;5.25;2.50;;;13.50;92.30;;;;;;5034725;28;20083;-67
2021/10/12 07:41:23;;;;;;;6.38;2.40;;;13.50;92.30;;;;;;5034959;28;20373;-67
2021/10/12 07:43:49;;;;;;;4.95;2.28;;;13.50;92.30;;;;;;5033913;28;20033;-67
2021/10/12 07:46:14;;;;;;;6.82;2.38;;;13.50;92.40;;;;;;5033434;28;20014;-67
2021/10/12 07:48:40;;;;;;;4.15;1.98;;;13.50;92.40;;;;;;5033092;28;20034;-68
2021/10/12 07:51:06;;;;;;;5.45;2.42;;;13.50;92.40;;;;;;5033173;28;20561;-68
2021/10/12 07:53:34;;;;;;;4.45;2.35;;;13.50;92.40;;;;;;5032044;28;20032;-67
2021/10/12 07:56:02;;;;;;;4.88;2.28;;;13.50;92.40;;;;;;5033419;28;20048;-67
2021/10/12 07:58:28;;;;;;;5.40;2.10;;;13.50;92.40;;;;;;5032955;28;20514;-67
2021/10/12 08:00:54;;;;;;;5.35;2.05;;;13.50;92.50;;;;;;5033124;28;20029;-68
2021/10/12 08:03:19;;;;;;;6.47;2.58;;;13.50;92.50;;;;;;5032901;28;20029;-68
2021/10/12 08:05:45;;;;;;;6.72;2.05;;;13.50;92.50;;;;;;5033102;28;20061;-67
2021/10/12 08:08:10;;;;;;;4.85;2.30;;;13.60;92.50;;;;;;5033103;28;20496;-68
2021/10/12 08:10:39;;;;;;;5.93;2.35;;;13.50;92.50;;;;;;5032930;28;20030;-67
2021/10/12 08:13:08;;;;;;;5.25;1.90;;;13.50;92.60;;;;;;5033119;28;20420;-68
2021/10/12 08:15:33;;;;;;;4.65;1.90;;;13.50;92.60;;;;;;5032992;28;20022;-67
2021/10/12 08:18:00;;;;;;;3.78;1.70;;;13.60;92.60;;;;;;5031451;28;20030;-68
2021/10/12 08:20:26;;;;;;;5.90;2.20;;;13.50;92.60;;;;;;5032814;28;20021;-68
2021/10/12 08:22:51;;;;;;;4.25;1.77;;;13.50;92.60;;;;;;5032682;28;20090;-68
2021/10/12 08:25:17;;;;;;;3.95;1.83;;;13.60;92.70;;;;;;5031566;28;20086;-69
2021/10/12 08:27:42;;;;;;;3.95;1.85;;;13.60;92.70;;;;;;5031562;28;20060;-67
2021/10/12 08:30:10;;;;;;;5.53;1.90;;;13.50;92.70;;;;;;5032494;28;20496;-67
2021/10/12 08:32:37;;;;;;;6.20;2.00;;;13.60;92.70;;;;;;5032404;28;20404;-68
2021/10/12 08:35:03;;;;;;;4.50;1.88;;;13.60;92.80;;;;;;5033122;28;20033;-67
2021/10/12 08:37:29;;;;;;;5.68;1.85;;;13.60;92.80;;;;;;5032606;28;20136;-68
2021/10/12 08:39:54;;;;;;;3.60;1.80;;;13.50;92.70;;;;;;5032361;28;20512;-67
2021/10/12 08:42:25;;;;;;;5.15;1.90;;;13.60;92.80;;;;;;5031267;28;20036;-67
2021/10/12 08:44:57;;;;;;;4.03;1.63;;;13.50;92.80;;;;;;4490811;22;15756194;-67
2021/10/12 08:47:24;;;;;;;5.07;1.95;;;13.60;92.80;;;;;;5032015;28;20034;-67
2021/10/12 08:49:51;;;;;;;6.55;1.90;;;13.60;92.80;;;;;;5033161;28;20029;-67
2021/10/12 08:52:17;;;;;;;4.90;1.67;;;13.60;92.90;;;;;;5033355;28;20045;-68
2021/10/12 08:54:42;;;;;;;4.13;1.80;;;13.60;92.90;;;;;;5033202;28;20022;-68
2021/10/12 08:57:08;;;;;;;3.70;1.60;;;13.60;92.90;;;;;;5033241;28;20034;-68
2021/10/12 08:59:34;;;;;;;4.25;1.63;;;13.60;92.90;;;;;;5033029;28;20032;-67
2021/10/12 09:02:03;;;;;;;4.32;1.60;;;13.60;92.90;;;;;;5033078;28;20466;-67
2021/10/12 09:04:39;;;;;;;6.60;2.15;;;13.60;93.00;;;;;;5033016;28;20049;-68
2021/10/12 09:07:15;;;;;;;4.53;1.70;;;13.60;93.10;;;;;;5033035;28;20022;-69
2021/10/12 09:09:41;;;;;;;4.13;1.75;;;13.60;93.00;;;;;;5033178;28;20029;-69
2021/10/12 09:12:06;;;;;;;5.18;2.03;;;13.60;93.00;;;;;;5033437;28;20026;-67
2021/10/12 09:14:32;;;;;;;3.50;1.83;;;13.50;93.10;;;;;;5032807;28;20115;-67
2021/10/12 09:17:05;;;;;;;3.72;1.63;;;13.60;93.20;;;;;;5032856;28;20032;-68
2021/10/12 09:19:35;;;;;;;3.92;1.80;;;13.60;93.10;;;;;;5032675;28;20060;-67
2021/10/12 09:22:05;;;;;;;3.60;1.70;;;13.60;93.30;;;;;;5033207;28;20025;-68
2021/10/12 09:24:37;;;;;;;4.53;1.70;;;13.60;93.60;;;;;;5032627;28;20022;-68
2021/10/12 09:27:05;;;;;;;3.30;1.27;;;13.60;93.60;;;;;;5032626;28;20013;-68
2021/10/12 09:29:40;;;;;;;4.07;1.70;;;13.60;94.20;;;;;;5032497;28;20026;-68
2021/10/12 09:32:08;;;;;;;2.85;1.45;;;13.60;94.10;;;;;;5032634;28;20021;-68
2021/10/12 09:34:35;;;;;;;3.45;1.48;;;13.60;93.90;;;;;;5032566;28;20017;-68
2021/10/12 09:37:02;;;;;;;2.90;1.40;;;13.60;94.30;;;;;;5032517;28;20025;-68
2021/10/12 09:39:29;;;;;;;3.42;1.60;;;13.60;93.90;;;;;;5032162;28;20029;-68
2021/10/12 09:41:57;;;;;;;4.47;1.40;;;13.60;94.30;;;;;;5032552;28;20136;-68
2021/10/12 09:44:23;;;;;;;4.00;1.70;;;13.60;93.90;;;;;;5032139;28;20051;-68
2021/10/12 09:46:51;;;;;;;2.88;1.33;;;13.60;93.60;;;;;;5032283;28;20026;-70
2021/10/12 09:49:19;;;;;;;4.75;1.70;;;13.70;94.00;;;;;;5032060;28;20025;-67
2021/10/12 09:52:01;;;;;;;3.33;1.50;;;13.70;93.90;;;;;;5032294;28;20017;-69
2021/10/12 09:54:32;;;;;;;3.00;1.30;;;13.70;94.30;;;;;;5031945;28;20026;-68
2021/10/12 09:57:00;;;;;;;4.18;1.50;;;13.70;94.60;;;;;;5032320;28;20031;-67
2021/10/12 09:59:26;;;;;;;4.00;1.40;;;13.70;94.20;;;;;;5031895;28;20029;-69
2021/10/12 10:01:53;;;;;;;4.60;1.30;;;13.70;94.90;;;;;;5030848;28;20030;-69
2021/10/12 10:04:19;;;;;;;3.05;1.40;;;13.70;94.20;;;;;;5031903;28;20033;-68
2021/10/12 10:06:53;;;;;;;3.63;1.40;;;13.70;94.20;;;;;;5030666;28;20047;-68
2021/10/12 10:09:21;;;;;;;2.88;1.20;;;13.70;94.30;;;;;;5031767;28;20049;-68
2021/10/12 10:11:48;;;;;;;2.72;0.98;;;13.70;94.20;;;;;;5030662;28;20026;-67
2021/10/12 10:14:15;;;;;;;3.85;1.30;;;13.70;94.10;;;;;;5031823;28;20060;-67
2021/10/12 10:16:43;;;;;;;3.00;1.30;;;13.70;93.80;;;;;;5031823;28;20033;-68
2021/10/12 10:19:16;;;;;;;2.88;1.30;;;13.70;94.10;;;;;;5030097;28;20025;-68
2021/10/12 10:21:46;;;;;;;1.70;1.00;;;13.70;94.00;;;;;;5031819;28;20033;-68
2021/10/12 10:24:21;;;;;;;4.57;1.20;;;13.70;94.50;;;;;;5031670;28;20031;-67
2021/10/12 10:26:49;;;;;;;3.55;1.02;;;13.70;94.00;;;;;;5031825;28;20040;-68
2021/10/12 10:29:24;;;;;;;2.92;1.00;;;13.70;94.90;;;;;;5031361;28;20388;-67
2021/10/12 10:32:01;;;;;;;1.67;0.90;;;13.70;94.60;;;;;;5031806;28;20018;-68
2021/10/12 10:34:26;;;;;;;2.70;1.08;;;13.70;94.30;;;;;;5030372;28;20033;-67
2021/10/12 10:37:17;;;;;;;2.92;1.05;;;13.70;94.80;;;;;;5030391;28;20382;-68
2021/10/12 10:39:53;;;;;;;2.60;0.93;;;13.70;95.00;;;;;;5029963;28;20026;-68
2021/10/12 10:42:28;;;;;;;1.90;1.10;;;13.70;94.30;;;;;;5031535;28;20028;-67
2021/10/12 10:45:02;;;;;;;2.13;0.98;;;13.80;94.60;;;;;;5031442;28;20025;-67
2021/10/12 10:47:40;;;;;;;2.15;1.10;;;13.80;94.30;;;;;;5031535;28;20021;-68
2021/10/12 10:50:24;;;;;;;2.60;0.90;;;13.70;94.10;;;;;;5031242;28;20032;-67
2021/10/12 10:52:51;;;;;;;3.25;1.10;;;13.80;94.70;;;;;;5030272;28;20061;-68
2021/10/12 10:55:23;;;;;;;4.78;1.30;;;13.80;94.30;;;;;;5030153;28;20025;-68
2021/10/12 10:58:17;;;;;;;3.75;1.10;;;13.80;94.40;;;;;;5031496;28;20023;-67
2021/10/12 11:00:49;;;;;;;1.83;0.80;;;13.80;94.30;;;;;;5030009;28;20030;-67
2021/10/12 11:03:36;;;;;;;3.22;1.15;;;13.80;94.60;;;;;;5031511;28;20401;-67
2021/10/12 11:06:14;;;;;;;2.58;1.00;;;13.80;94.60;;;;;;5032482;28;20072;-67
2021/10/12 11:09:02;;;;;;;5.78;1.10;;;13.80;94.60;;;;;;5035154;28;20030;-68
2021/10/12 11:11:32;;;;;;;7.85;1.20;;;13.80;94.70;;;;;;5035303;28;20025;-68
2021/10/12 11:13:59;;;;;;;2.63;0.93;;;13.80;95.30;;;;;;5035193;28;20037;-67
2021/10/12 11:16:35;;;;;;;3.65;1.17;;;13.80;94.50;;;;;;5035246;28;20017;-67
2021/10/12 11:19:03;;;;;;;3.78;0.90;;;13.80;94.40;;;;;;5034883;28;20095;-67
2021/10/12 11:21:28;;;;;;;3.40;1.00;;;13.80;94.50;;;;;;5033814;28;20025;-67
2021/10/12 11:23:54;;;;;;;3.05;1.13;;;13.80;95.00;;;;;;5033618;28;20022;-68
2021/10/12 11:26:22;;;;;;;2.92;0.90;;;13.80;94.50;;;;;;5033689;28;20029;-68
2021/10/12 11:28:51;;;;;;;6.07;1.10;;;13.80;94.60;;;;;;5034631;28;20029;-68
2021/10/12 11:31:19;;;;;;;5.97;1.25;;;13.80;95.00;;;;;;5034971;28;20484;-68
2021/10/12 11:33:47;;;;;;;3.17;1.02;;;13.80;94.60;;;;;;5034811;28;20108;-68
2021/10/12 11:36:15;;;;;;;4.07;0.90;;;13.80;94.60;;;;;;5034694;28;20029;-68
2021/10/12 11:38:49;;;;;;;2.63;0.90;;;13.80;94.50;;;;;;5034567;28;20053;-68
2021/10/12 11:41:15;;;;;;;2.97;1.08;;;13.80;95.20;;;;;;5034998;28;20041;-68
2021/10/12 11:43:42;;;;;;;2.08;0.90;;;13.80;94.90;;;;;;5034428;28;20029;-69
2021/10/12 11:46:08;;;;;;;2.78;1.02;;;13.80;95.20;;;;;;5034717;28;20021;-68
2021/10/12 11:48:38;;;;;;;2.53;0.90;;;13.80;95.20;;;;;;5033028;28;20113;-68
2021/10/12 11:51:17;;;;;;;4.18;1.00;;;13.80;95.30;;;;;;5033348;28;20493;-68
2021/10/12 11:53:44;;;;;;;3.85;1.10;;;13.80;94.70;;;;;;5034483;28;20100;-68
2021/10/12 11:56:12;;;;;;;5.00;1.42;;;13.80;94.50;;;;;;5034470;28;20025;-68
2021/10/12 11:58:41;;;;;;;3.67;0.93;;;13.80;95.10;;;;;;5033023;28;20382;-68
2021/10/12 12:01:09;;;;;;;5.47;1.30;;;13.80;95.00;;;;;;5034299;28;20080;-68
2021/10/12 12:03:35;;;;;;;3.72;1.10;;;13.80;95.50;;;;;;5034226;28;20497;-67
2021/10/12 12:06:01;;;;;;;3.83;1.00;;;13.80;95.30;;;;;;5034422;28;20260;-67
2021/10/12 12:08:30;;;;;;;4.68;1.10;;;13.80;95.00;;;;;;5033885;28;20044;-67
2021/10/12 12:10:56;;;;;;;4.05;1.00;;;13.80;95.50;;;;;;5034140;28;20022;-69
2021/10/12 12:13:26;;;;;;;6.05;1.15;;;13.80;95.20;;;;;;5034050;28;20079;-68
2021/10/12 12:15:52;;;;;;;7.53;1.63;;;13.80;94.90;;;;;;5033872;28;20086;-67
2021/10/12 12:18:19;;;;;;;12.77;1.42;;;13.80;95.30;;;;;;5033847;28;20116;-67
2021/10/12 12:21:00;;;;;;;9.70;1.40;;;13.90;95.20;;;;;;5034185;28;20036;-67
2021/10/12 12:23:31;;;;;;;11.45;1.17;;;13.80;95.10;;;;;;5032599;28;20032;-67
2021/10/12 12:25:57;;;;;;;5.53;1.15;;;13.90;95.00;;;;;;5033916;28;20033;-68
2021/10/12 12:28:23;;;;;;;6.28;1.17;;;13.90;94.60;;;;;;5033479;28;20052;-67
2021/10/12 12:30:49;;;;;;;3.40;1.00;;;13.90;94.90;;;;;;5033782;28;20021;-67
2021/10/12 12:33:14;;;;;;;7.68;1.30;;;13.90;95.00;;;;;;5033751;28;20026;-69
2021/10/12 12:35:42;;;;;;;5.85;1.02;;;13.90;94.70;;;;;;5033702;28;20041;-67
2021/10/12 12:38:09;;;;;;;3.80;1.00;;;13.90;94.40;;;;;;5033672;28;20105;-68
2021/10/12 12:40:38;;;;;;;6.32;1.27;;;13.90;94.40;;;;;;5032067;28;20401;-69
2021/10/12 12:43:19;;;;;;;6.50;1.35;;;13.90;94.60;;;;;;5033440;28;20591;-67
2021/10/12 12:45:45;;;;;;;6.80;0.95;;;13.90;94.10;;;;;;5033746;28;20044;-67